createdAt,value
2019-02-26T00:01:14.404Z,85.00
2019-02-26T00:03:41.873Z,85.10
2019-02-26T00:06:10.983Z,84.90
2019-02-26T00:08:40.084Z,84.90
2019-02-26T00:11:10.801Z,85.20
2019-02-26T00:13:40.040Z,85.20
2019-02-26T00:16:10.518Z,85.40
2019-02-26T00:18:39.913Z,85.30
2019-02-26T00:21:08.958Z,85.10
2019-02-26T00:23:38.035Z,85.10
2019-02-26T00:26:10.485Z,85.30
2019-02-26T00:28:39.106Z,85.50
2019-02-26T00:31:08.789Z,85.80
2019-02-26T00:33:37.965Z,85.70
2019-02-26T00:36:08.915Z,85.60
2019-02-26T00:38:39.865Z,85.60
2019-02-26T00:41:08.649Z,85.60
2019-02-26T00:43:37.690Z,85.60
2019-02-26T00:46:08.603Z,85.60
2019-02-26T00:48:40.259Z,85.70
2019-02-26T00:51:08.532Z,85.50
2019-02-26T00:53:37.652Z,85.50
2019-02-26T00:56:08.029Z,85.80
2019-02-26T00:58:39.289Z,85.50
2019-02-26T01:01:10.402Z,85.70
2019-02-26T01:03:40.710Z,85.90
2019-02-26T01:06:10.078Z,86.50
2019-02-26T01:08:40.252Z,86.70
2019-02-26T01:11:10.291Z,86.80
2019-02-26T01:13:39.362Z,86.80
2019-02-26T01:16:08.411Z,86.70
2019-02-26T01:18:37.861Z,86.80
2019-02-26T01:21:06.929Z,86.90
2019-02-26T01:23:35.975Z,87.10
2019-02-26T01:26:05.054Z,87.60
2019-02-26T01:28:34.140Z,87.30
2019-02-26T01:31:05.033Z,87.10
2019-02-26T01:33:34.265Z,87.90
2019-02-26T01:36:03.583Z,87.50
2019-02-26T01:38:37.389Z,88.10
2019-02-26T01:41:05.271Z,88.00
2019-02-26T01:43:34.401Z,88.20
2019-02-26T01:46:03.555Z,88.30
2019-02-26T01:48:34.327Z,88.40
2019-02-26T01:51:03.486Z,88.80
2019-02-26T01:53:32.678Z,88.90
2019-02-26T01:56:04.542Z,89.40
2019-02-26T01:58:33.699Z,88.60
2019-02-26T02:01:03.166Z,88.60
2019-02-26T02:03:32.594Z,88.60
2019-02-26T02:06:01.817Z,88.60
2019-02-26T02:08:30.894Z,88.40
2019-02-26T02:11:01.967Z,88.30
2019-02-26T02:13:32.943Z,88.60
2019-02-26T02:16:02.130Z,88.10
2019-02-26T02:18:32.311Z,89.00
2019-02-26T02:21:01.382Z,88.80
2019-02-26T02:23:30.562Z,89.20
2019-02-26T02:26:02.126Z,89.50
2019-02-26T02:28:31.072Z,89.80
2019-02-26T02:31:01.262Z,90.00
2019-02-26T02:33:33.106Z,90.10
2019-02-26T02:36:01.275Z,90.30
2019-02-26T02:38:30.314Z,90.30
2019-02-26T02:40:59.378Z,90.40
2019-02-26T02:43:28.554Z,90.50
2019-02-26T02:45:59.013Z,90.70
2019-02-26T02:48:28.496Z,90.80
2019-02-26T02:50:59.517Z,91.00
2019-02-26T02:53:30.218Z,91.00
2019-02-26T02:55:59.138Z,91.20
2019-02-26T02:58:28.243Z,91.30
2019-02-26T03:01:00.195Z,91.30
2019-02-26T03:03:28.100Z,91.40
2019-02-26T03:05:58.368Z,91.50
2019-02-26T03:08:27.950Z,91.50
2019-02-26T03:10:56.998Z,91.90
2019-02-26T03:13:27.948Z,91.60
2019-02-26T03:15:59.293Z,91.60
2019-02-26T03:18:27.667Z,91.90
2019-02-26T03:20:59.311Z,92.10
2019-02-26T03:23:27.521Z,92.10
2019-02-26T03:25:56.590Z,92.70
2019-02-26T03:28:25.642Z,92.40
2019-02-26T03:30:55.003Z,92.50
2019-02-26T03:33:24.088Z,92.50
2019-02-26T03:35:53.149Z,92.30
2019-02-26T03:38:23.397Z,92.30
2019-02-26T03:40:58.041Z,92.60
2019-02-26T03:43:25.561Z,92.70
2019-02-26T03:45:54.653Z,93.00
2019-02-26T03:48:24.091Z,93.20
2019-02-26T03:50:53.139Z,93.20
2019-02-26T03:53:25.828Z,93.20
2019-02-26T03:55:59.558Z,93.40
2019-02-26T03:58:26.889Z,93.20
2019-02-26T04:00:55.955Z,93.40
2019-02-26T04:03:25.107Z,93.30
2019-02-26T04:05:57.173Z,93.40
2019-02-26T04:08:27.003Z,93.40
2019-02-26T04:10:58.349Z,93.50
2019-02-26T04:13:26.809Z,93.60
2019-02-26T04:15:57.104Z,93.70
2019-02-26T04:18:26.682Z,93.80
2019-02-26T04:20:59.828Z,93.90
2019-02-26T04:23:26.870Z,93.50
2019-02-26T04:26:08.887Z,93.60
2019-02-26T04:29:05.176Z,93.60
2019-02-26T04:31:47.115Z,93.70
2019-02-26T04:34:37.587Z,94.10
2019-02-26T04:38:03.349Z,94.30
2019-02-26T04:41:15.930Z,94.30
2019-02-26T04:44:10.710Z,94.50
2019-02-26T04:47:06.457Z,94.80
2019-02-26T04:49:38.348Z,94.70
2019-02-26T04:52:10.266Z,94.70
2019-02-26T04:54:39.577Z,94.90
2019-02-26T04:57:08.031Z,95.00
2019-02-26T04:59:38.714Z,95.00
2019-02-26T05:02:07.851Z,95.10
2019-02-26T05:04:39.363Z,95.20
2019-02-26T05:07:10.560Z,95.00
2019-02-26T05:09:38.663Z,95.30
2019-02-26T05:12:10.926Z,95.20
2019-02-26T05:14:40.002Z,95.30
2019-02-26T05:17:09.099Z,95.20
2019-02-26T05:19:39.568Z,95.40
2019-02-26T05:22:08.929Z,95.40
2019-02-26T05:24:41.394Z,95.50
2019-02-26T05:27:15.618Z,95.40
2019-02-26T05:29:46.584Z,95.50
2019-02-26T05:32:16.585Z,95.60
2019-02-26T05:34:48.121Z,95.40
2019-02-26T05:37:16.467Z,95.50
2019-02-26T05:39:46.880Z,95.60
2019-02-26T05:42:16.339Z,95.60
2019-02-26T05:44:45.404Z,95.70
2019-02-26T05:47:16.696Z,95.70
2019-02-26T05:49:45.787Z,95.70
2019-02-26T05:52:15.146Z,95.80
2019-02-26T05:54:44.236Z,95.80
2019-02-26T05:57:25.877Z,95.70
2019-02-26T05:59:44.166Z,96.00
2019-02-26T06:02:15.608Z,96.00
2019-02-26T06:04:46.554Z,96.00
2019-02-26T06:07:19.183Z,96.00
2019-02-26T06:09:48.005Z,95.90
2019-02-26T06:12:16.482Z,96.10
2019-02-26T06:14:45.562Z,96.30
2019-02-26T06:17:17.211Z,96.60
2019-02-26T06:19:47.524Z,96.50
2019-02-26T06:22:20.102Z,96.40
2019-02-26T06:24:47.393Z,96.20
2019-02-26T06:27:18.962Z,96.40
2019-02-26T06:29:47.287Z,96.90
2019-02-26T06:32:16.534Z,96.90
2019-02-26T06:34:45.587Z,96.90
2019-02-26T06:37:17.092Z,96.80
2019-02-26T06:39:50.505Z,96.60
2019-02-26T06:42:17.081Z,96.40
2019-02-26T06:44:47.204Z,96.70
2019-02-26T06:47:16.946Z,96.80
2019-02-26T06:49:47.959Z,96.70
2019-02-26T06:52:18.018Z,96.60
2019-02-26T06:54:50.782Z,96.70
2019-02-26T06:57:18.399Z,97.00
2019-02-26T06:59:47.520Z,97.00
2019-02-26T07:02:16.701Z,96.70
2019-02-26T07:04:45.798Z,97.00
2019-02-26T07:07:14.928Z,96.70
2019-02-26T07:09:44.075Z,96.50
2019-02-26T07:12:14.625Z,96.50
2019-02-26T07:14:45.946Z,96.30
2019-02-26T07:17:14.864Z,96.40
2019-02-26T07:19:43.922Z,96.20
2019-02-26T07:22:13.508Z,96.40
2019-02-26T07:24:46.248Z,96.40
2019-02-26T07:27:14.659Z,96.70
2019-02-26T07:29:45.590Z,96.90
2019-02-26T07:32:15.479Z,96.80
2019-02-26T07:34:47.998Z,96.70
2019-02-26T07:37:16.238Z,96.60
2019-02-26T07:39:47.213Z,96.50
2019-02-26T07:42:18.361Z,96.50
2019-02-26T07:44:46.914Z,96.50
2019-02-26T07:47:16.038Z,96.70
2019-02-26T07:49:45.125Z,96.40
2019-02-26T07:52:14.227Z,96.50
2019-02-26T07:54:44.797Z,95.90
2019-02-26T07:57:15.735Z,96.20
2019-02-26T07:59:47.095Z,96.60
2019-02-26T08:02:15.901Z,96.50
2019-02-26T08:04:45.046Z,96.50
2019-02-26T08:07:14.276Z,96.70
2019-02-26T08:09:43.402Z,96.80
2019-02-26T08:12:13.715Z,96.80
2019-02-26T08:14:45.308Z,96.40
2019-02-26T08:17:14.157Z,96.60
2019-02-26T08:19:46.324Z,96.60
2019-02-26T08:22:14.124Z,96.40
2019-02-26T08:24:43.221Z,96.50
2019-02-26T08:27:13.558Z,96.60
2019-02-26T08:29:43.014Z,96.70
2019-02-26T11:12:00.827Z,94.30
2019-02-26T11:14:31.241Z,94.70
2019-02-26T11:17:01.580Z,95.10
2019-02-26T11:19:33.826Z,95.30
2019-02-26T11:22:04.201Z,94.70
2019-02-26T11:24:33.596Z,94.70
2019-02-26T11:27:03.665Z,94.50
2019-02-26T11:29:34.095Z,94.80
2019-02-26T11:32:04.592Z,94.70
2019-02-26T11:34:36.251Z,94.60
2019-02-26T11:37:08.911Z,94.70
2019-02-26T11:39:36.172Z,94.70
2019-02-26T11:42:05.345Z,94.90
2019-02-26T11:44:35.225Z,94.50
2019-02-26T11:47:04.612Z,94.30
2019-02-26T11:49:34.902Z,94.00
2019-02-26T11:52:04.739Z,93.80
2019-02-26T11:54:35.068Z,93.60
2019-02-26T11:57:09.786Z,93.30
2019-02-26T11:59:38.072Z,93.30
2019-02-26T12:02:07.388Z,93.60
2019-02-26T12:04:36.512Z,93.80
2019-02-26T12:07:07.472Z,93.60
2019-02-26T12:09:38.535Z,93.60
2019-02-26T12:12:09.233Z,93.50
2019-02-26T12:14:42.639Z,93.70
2019-02-26T12:17:09.327Z,93.80
2019-02-26T12:19:38.414Z,93.60
2019-02-26T12:22:07.590Z,92.80
2019-02-26T12:24:36.735Z,92.40
2019-02-26T12:27:07.326Z,92.50
2019-02-26T12:29:36.651Z,92.30
2019-02-26T12:32:05.750Z,92.60
2019-02-26T12:34:35.923Z,92.80
2019-02-26T12:37:06.627Z,93.00
2019-02-26T12:39:36.492Z,93.10
2019-02-26T12:42:07.403Z,93.20
2019-02-26T12:44:39.454Z,93.20
2019-02-26T12:47:07.449Z,93.00
2019-02-26T12:49:39.156Z,93.10
2019-02-26T12:52:08.871Z,93.20
2019-02-26T12:54:42.240Z,93.50
2019-02-26T12:57:08.734Z,93.10
2019-02-26T12:59:37.833Z,93.10
2019-02-26T13:02:09.997Z,93.40
2019-02-26T13:04:40.861Z,93.50
2019-02-26T13:07:09.475Z,93.50
2019-02-26T13:09:46.066Z,93.50
2019-02-26T13:12:11.470Z,93.60
2019-02-26T13:14:40.485Z,93.80
2019-02-26T13:17:09.627Z,93.90
2019-02-26T13:19:39.335Z,94.20
2019-02-26T13:22:12.496Z,94.50
2019-02-26T13:24:39.590Z,94.50
2019-02-26T13:27:08.670Z,94.40
2019-02-26T13:29:42.569Z,94.30
2019-02-26T13:32:13.676Z,94.20
2019-02-26T13:34:39.995Z,94.40
2019-02-26T13:37:09.182Z,94.20
2019-02-26T13:39:41.209Z,94.20
2019-02-26T13:42:13.160Z,94.20
2019-02-26T13:44:40.091Z,94.20
2019-02-26T13:47:09.653Z,94.10
2019-02-26T13:49:38.937Z,94.30
2019-02-26T13:52:08.115Z,94.10
2019-02-26T13:54:37.196Z,93.90
2019-02-26T13:57:06.290Z,94.00
2019-02-26T13:59:35.458Z,94.30
2019-02-26T14:02:04.619Z,94.60
2019-02-26T14:04:33.911Z,94.70
2019-02-26T14:07:03.019Z,94.90
2019-02-26T14:09:32.114Z,95.10
2019-02-26T14:12:01.226Z,95.30
2019-02-26T14:14:30.622Z,95.40
2019-02-26T14:16:59.714Z,95.50
2019-02-26T14:19:28.865Z,95.60
2019-02-26T14:21:57.961Z,95.40
2019-02-26T14:24:27.150Z,95.30
2019-02-26T14:26:56.226Z,95.50
2019-02-26T14:29:25.287Z,95.40
2019-02-26T14:31:54.383Z,95.50
2019-02-26T14:34:23.455Z,95.40
2019-02-26T14:36:52.530Z,95.30
2019-02-26T14:39:22.142Z,95.30
2019-02-26T14:41:51.203Z,95.60
2019-02-26T14:44:20.292Z,95.70
2019-02-26T14:46:49.370Z,95.80
2019-02-26T14:49:18.583Z,95.70
2019-02-26T14:51:47.700Z,95.40
2019-02-26T14:54:16.790Z,95.60
2019-02-26T14:56:45.954Z,95.80
2019-02-26T14:59:15.091Z,95.80
2019-02-26T15:01:44.412Z,95.80
2019-02-26T15:04:13.491Z,95.90
2019-02-26T15:06:42.611Z,96.20
2019-02-26T15:09:11.718Z,96.50
2019-02-26T15:11:40.883Z,96.60
2019-02-26T15:14:10.001Z,96.70
2019-02-26T15:16:39.236Z,97.00
2019-02-26T15:19:08.379Z,97.00
2019-02-26T15:21:37.633Z,96.80
2019-02-26T15:24:06.834Z,96.90
2019-02-26T15:26:35.893Z,97.10
2019-02-26T15:29:05.084Z,97.10
2019-02-26T15:31:34.186Z,97.10
2019-02-26T15:34:03.314Z,97.00
2019-02-26T15:36:32.763Z,97.00
2019-02-26T15:39:01.877Z,97.20
2019-02-26T15:41:34.142Z,97.20
2019-02-26T15:44:03.487Z,97.00
2019-02-26T15:46:32.595Z,97.40
2019-02-26T15:49:01.802Z,97.20
2019-02-26T15:51:30.923Z,97.10
2019-02-26T15:54:00.033Z,97.00
2019-02-26T15:56:29.833Z,96.90
2019-02-26T15:58:59.394Z,96.80
2019-02-26T16:01:28.538Z,96.60
2019-02-26T16:03:57.933Z,96.60
2019-02-26T16:06:27.027Z,96.80
2019-02-26T16:08:56.126Z,97.20
2019-02-26T16:11:25.190Z,97.40
2019-02-26T16:13:54.284Z,97.50
2019-02-26T16:16:23.433Z,97.70
2019-02-26T16:18:52.499Z,97.60
2019-02-26T16:21:21.608Z,97.70
2019-02-26T16:23:51.082Z,97.40
2019-02-26T16:26:20.220Z,97.20
2019-02-26T16:28:49.283Z,97.20
2019-02-26T16:31:18.395Z,97.50
2019-02-26T16:33:47.589Z,97.60
2019-02-26T16:36:17.041Z,98.00
2019-02-26T16:38:50.602Z,98.20
2019-02-26T16:41:18.832Z,98.40
2019-02-26T16:43:51.645Z,98.60
2019-02-26T16:46:18.990Z,98.80
2019-02-26T16:48:48.077Z,98.90
2019-02-26T16:51:21.022Z,99.00
2019-02-26T16:53:48.029Z,99.10
2019-02-26T16:56:17.219Z,99.10
2019-02-26T16:58:46.296Z,99.20
2019-02-26T17:01:15.401Z,99.20
2019-02-26T17:03:44.586Z,99.30
2019-02-26T17:06:13.818Z,99.20
2019-02-26T17:08:44.709Z,99.30
2019-02-26T17:11:14.006Z,99.50
2019-02-26T17:13:44.122Z,99.70
2019-02-26T17:16:18.118Z,99.80
2019-02-26T17:18:47.215Z,99.90
2019-02-26T17:21:16.298Z,99.90
2019-02-26T17:23:47.118Z,99.90
2019-02-26T17:26:16.582Z,99.90
2019-02-26T17:31:20.533Z,99.90
2019-02-26T17:33:49.577Z,99.90
2019-02-26T17:36:18.782Z,99.90
2019-02-26T17:38:51.557Z,99.90
2019-02-26T17:41:18.717Z,99.90
2019-02-26T17:43:47.782Z,99.90
2019-02-26T17:46:16.869Z,99.90
2019-02-26T17:48:45.956Z,99.90
2019-02-26T17:51:18.789Z,99.90
2019-02-26T17:53:45.943Z,99.90
2019-02-26T17:56:14.998Z,99.90
2019-02-26T17:58:44.549Z,99.90
2019-02-26T18:01:13.785Z,99.90
2019-02-26T18:03:45.338Z,99.90
2019-02-26T18:06:13.751Z,99.90
2019-02-26T18:08:43.143Z,99.90
2019-02-26T18:11:12.209Z,99.90
2019-02-26T18:13:41.290Z,99.90
2019-02-26T18:16:10.358Z,99.90
2019-02-26T18:18:39.437Z,99.90
2019-02-26T18:21:08.582Z,99.90
2019-02-26T18:23:38.281Z,99.90
2019-02-26T18:26:07.555Z,99.90
2019-02-26T18:28:36.862Z,99.90
2019-02-26T18:31:06.131Z,99.90
2019-02-26T18:33:36.237Z,99.90
2019-02-26T18:36:05.442Z,99.90
2019-02-26T18:38:34.519Z,99.90
2019-02-26T18:41:03.665Z,99.90
2019-02-26T18:43:32.747Z,99.90
2019-02-26T18:46:01.833Z,99.90
2019-02-26T18:48:31.001Z,99.90
2019-02-26T18:51:02.345Z,99.90
2019-02-26T18:53:31.095Z,99.90
2019-02-26T18:56:01.797Z,99.90
2019-02-26T18:58:31.582Z,99.90
2019-02-26T19:01:00.796Z,99.90
2019-02-26T19:03:29.833Z,99.90
2019-02-26T19:05:58.928Z,99.90
2019-02-26T19:08:28.011Z,99.90
2019-02-26T19:10:57.707Z,99.90
2019-02-26T19:13:26.906Z,99.90
2019-02-26T19:15:55.990Z,99.90
2019-02-26T19:18:24.974Z,99.90
2019-02-26T19:20:54.053Z,99.90
2019-02-26T19:23:23.158Z,99.90
2019-02-26T19:25:52.242Z,99.90
2019-02-26T19:28:21.342Z,99.90
2019-02-26T19:30:50.414Z,99.90
2019-02-26T19:33:21.771Z,99.90
2019-02-26T19:35:50.456Z,99.90
2019-02-26T19:38:19.534Z,99.90
2019-02-26T19:40:48.717Z,99.90
2019-02-26T19:43:17.826Z,99.90
2019-02-26T19:45:46.917Z,99.90
2019-02-26T19:48:15.998Z,99.90
2019-02-26T19:50:47.930Z,99.90
2019-02-26T19:53:15.804Z,99.90
2019-02-26T19:55:48.781Z,99.90
2019-02-26T19:58:16.077Z,99.90
2019-02-26T20:00:45.163Z,99.90
2019-02-26T20:03:14.344Z,99.90
2019-02-26T20:05:45.947Z,99.90
2019-02-26T20:08:14.197Z,99.90
2019-02-26T20:10:45.585Z,99.90
2019-02-26T20:13:14.108Z,99.90
2019-02-26T20:15:43.300Z,99.90
2019-02-26T20:18:20.078Z,99.90
2019-02-26T20:20:45.713Z,99.90
2019-02-26T20:23:14.841Z,99.90
2019-02-26T20:25:43.983Z,99.90
2019-02-26T20:28:13.056Z,99.90
2019-02-26T20:30:42.229Z,99.90
2019-02-26T20:33:11.279Z,99.90
2019-02-26T20:35:40.274Z,99.90
2019-02-26T20:38:09.334Z,99.90
2019-02-26T20:40:38.346Z,99.90
2019-02-26T20:43:07.532Z,99.90
2019-02-26T20:45:36.610Z,99.90
2019-02-26T20:48:06.722Z,99.90
2019-02-26T20:50:35.813Z,99.90
2019-02-26T20:53:05.891Z,99.90
2019-02-26T20:55:35.624Z,99.90
2019-02-26T20:58:04.794Z,99.90
2019-02-26T21:00:34.126Z,99.90
2019-02-26T21:03:03.169Z,99.90
2019-02-26T21:05:32.652Z,99.90
2019-02-26T21:08:01.973Z,99.90
2019-02-26T21:10:31.107Z,99.90
2019-02-26T21:13:01.899Z,99.90
2019-02-26T21:15:31.326Z,99.90
2019-02-26T21:18:00.756Z,99.90
2019-02-26T21:20:29.950Z,99.90
2019-02-26T21:22:58.963Z,99.90
2019-02-26T21:25:28.002Z,99.90
2019-02-26T21:28:00.628Z,99.90
2019-02-26T21:30:28.015Z,99.90
2019-02-26T21:32:58.081Z,99.90
2019-02-26T21:35:27.886Z,99.90
2019-02-26T21:37:56.947Z,99.90
2019-02-26T21:40:26.006Z,99.90
2019-02-26T21:42:55.085Z,99.90
2019-02-26T21:45:24.570Z,99.90
2019-02-26T21:47:54.006Z,99.90
2019-02-26T21:50:23.374Z,99.90
2019-02-26T21:53:00.255Z,99.90
2019-02-26T21:55:24.053Z,99.90
2019-02-26T21:57:54.818Z,99.90
2019-02-26T22:00:24.937Z,99.90
2019-02-26T22:02:54.380Z,99.90
2019-02-26T22:05:23.719Z,99.90
2019-02-26T22:07:53.154Z,99.90
2019-02-26T22:10:22.511Z,99.90
2019-02-26T22:12:51.919Z,99.90
2019-02-26T22:15:21.358Z,99.90
2019-02-26T22:17:50.521Z,99.90
2019-02-26T22:20:35.470Z,99.90
2019-02-26T22:22:51.180Z,99.90
2019-02-26T22:25:20.736Z,99.90
2019-02-26T22:27:50.244Z,99.90
2019-02-26T22:30:22.070Z,99.90
2019-02-26T22:32:50.993Z,99.90
2019-02-26T22:35:20.430Z,99.90
2019-02-26T22:37:49.748Z,99.90
2019-02-26T22:40:19.520Z,99.90
2019-02-26T22:42:48.688Z,99.90
2019-02-26T22:45:18.160Z,99.90
2019-02-26T22:47:47.582Z,99.90
2019-02-26T22:50:17.061Z,99.90
2019-02-26T22:52:46.435Z,99.90
2019-02-26T22:55:17.231Z,99.90
2019-02-26T22:57:47.384Z,99.90
2019-02-26T23:00:53.005Z,99.90
2019-02-26T23:03:22.447Z,99.90
2019-02-26T23:05:52.031Z,99.90
2019-02-26T23:08:21.376Z,99.90
2019-02-26T23:10:51.398Z,99.90
2019-02-26T23:13:21.459Z,99.90
2019-02-26T23:15:50.842Z,99.90
2019-02-26T23:18:21.005Z,99.90
2019-02-26T23:20:50.630Z,99.90
2019-02-26T23:23:21.881Z,99.90
2019-02-26T23:25:51.240Z,99.90
2019-02-26T23:28:21.969Z,99.90
2019-02-26T23:30:53.226Z,99.90
2019-02-26T23:33:22.682Z,99.90
2019-02-26T23:35:54.853Z,99.90
2019-02-26T23:38:23.427Z,99.90
2019-02-26T23:40:52.872Z,99.90
2019-02-26T23:43:22.221Z,99.90
2019-02-26T23:45:56.822Z,99.90
2019-02-26T23:48:23.806Z,99.90
2019-02-26T23:50:53.176Z,99.90
2019-02-26T23:53:22.627Z,99.90
2019-02-26T23:55:52.042Z,99.90
2019-02-26T23:58:21.454Z,99.90
